createdAt,value
2022-12-03T00:02:25.967Z,-0.50
2022-12-03T00:04:54.322Z,-0.50
2022-12-03T00:07:22.654Z,-0.40
2022-12-03T00:09:52.208Z,-0.40
2022-12-03T00:12:20.284Z,-0.40
2022-12-03T00:14:48.391Z,-0.40
2022-12-03T00:17:16.493Z,-0.40
2022-12-03T00:19:44.537Z,-0.40
2022-12-03T00:22:13.004Z,-0.40
2022-12-03T00:24:41.171Z,-0.50
2022-12-03T00:27:10.672Z,-0.40
2022-12-03T00:29:38.724Z,-0.40
2022-12-03T00:32:07.121Z,-0.50
2022-12-03T00:34:35.238Z,-0.40
2022-12-03T00:37:03.529Z,-0.40
2022-12-03T00:39:31.593Z,-0.40
2022-12-03T00:41:59.746Z,-0.40
2022-12-03T00:44:29.268Z,-0.40
2022-12-03T00:46:57.376Z,-0.40
2022-12-03T00:49:25.494Z,-0.30
2022-12-03T00:51:53.798Z,-0.30
2022-12-03T00:54:24.538Z,-0.30
2022-12-03T00:56:56.509Z,-0.40
2022-12-03T00:59:24.547Z,-0.30
2022-12-03T01:01:54.091Z,-0.30
2022-12-03T01:04:22.452Z,-0.30
2022-12-03T01:06:50.558Z,-0.30
2022-12-03T01:09:18.634Z,-0.30
2022-12-03T01:11:46.782Z,-0.30
2022-12-03T01:14:15.623Z,-0.30
2022-12-03T01:16:43.838Z,-0.30
2022-12-03T01:19:15.851Z,-0.30
2022-12-03T01:21:44.446Z,-0.30
2022-12-03T01:24:12.742Z,-0.40
2022-12-03T01:26:41.063Z,-0.40
2022-12-03T01:29:09.163Z,-0.40
2022-12-03T01:31:54.924Z,-0.40
2022-12-03T01:34:24.352Z,-0.30
2022-12-03T01:36:52.762Z,-0.30
2022-12-03T01:39:21.209Z,-0.30
2022-12-03T01:41:49.463Z,-0.40
2022-12-03T01:44:19.557Z,-0.40
2022-12-03T01:46:47.741Z,-0.30
2022-12-03T01:49:17.683Z,-0.30
2022-12-03T01:51:47.379Z,-0.30
2022-12-03T01:54:17.491Z,-0.30
2022-12-03T01:56:45.873Z,-0.40
2022-12-03T01:59:16.416Z,-0.40
2022-12-03T02:01:44.538Z,-0.40
2022-12-03T02:04:14.254Z,-0.40
2022-12-03T02:06:42.656Z,-0.40
2022-12-03T02:09:12.888Z,-0.40
2022-12-03T02:11:42.240Z,-0.30
2022-12-03T02:14:12.027Z,-0.30
2022-12-03T02:16:40.457Z,-0.30
2022-12-03T02:19:11.440Z,-0.30
2022-12-03T02:21:43.659Z,-0.30
2022-12-03T02:24:16.048Z,-0.30
2022-12-03T02:26:45.476Z,-0.30
2022-12-03T02:29:13.562Z,-0.30
2022-12-03T02:31:41.691Z,-0.30
2022-12-03T02:34:10.028Z,-0.30
2022-12-03T02:36:38.155Z,-0.30
2022-12-03T02:39:06.203Z,-0.30
2022-12-03T02:41:51.626Z,-0.30
2022-12-03T02:44:21.409Z,-0.30
2022-12-03T02:46:49.557Z,-0.30
2022-12-03T02:49:17.984Z,-0.30
2022-12-03T02:51:46.019Z,-0.20
2022-12-03T02:54:14.091Z,-0.30
2022-12-03T02:56:42.193Z,-0.30
2022-12-03T02:59:10.258Z,-0.30
2022-12-03T03:01:39.769Z,-0.30
2022-12-03T03:04:07.989Z,-0.30
2022-12-03T03:06:36.122Z,-0.30
2022-12-03T03:09:04.318Z,-0.30
2022-12-03T03:11:32.404Z,-0.20
2022-12-03T03:14:01.696Z,-0.20
2022-12-03T03:16:29.915Z,-0.30
2022-12-03T03:18:59.384Z,-0.30
2022-12-03T03:21:27.469Z,-0.20
2022-12-03T03:23:55.538Z,-0.20
2022-12-03T03:26:23.686Z,-0.20
2022-12-03T03:28:51.893Z,-0.20
2022-12-03T03:31:22.149Z,-0.20
2022-12-03T03:33:50.323Z,-0.20
2022-12-03T03:36:19.799Z,-0.20
2022-12-03T03:38:48.057Z,-0.20
2022-12-03T03:41:16.372Z,-0.20
2022-12-03T03:43:45.073Z,-0.20
2022-12-03T03:46:13.238Z,-0.20
2022-12-03T03:48:41.414Z,-0.20
2022-12-03T03:51:09.862Z,-0.20
2022-12-03T03:53:39.895Z,-0.20
2022-12-03T03:56:08.588Z,-0.20
2022-12-03T03:58:36.683Z,-0.20
2022-12-03T04:01:04.877Z,-0.20
2022-12-03T04:03:32.987Z,-0.20
2022-12-03T04:06:01.116Z,-0.20
2022-12-03T04:08:29.164Z,-0.20
2022-12-03T04:11:16.103Z,-0.20
2022-12-03T04:13:44.146Z,-0.10
2022-12-03T04:16:12.325Z,-0.10
2022-12-03T04:18:46.422Z,-0.10
2022-12-03T04:21:32.881Z,-0.20
2022-12-03T04:24:01.058Z,-0.20
2022-12-03T04:26:48.870Z,-0.20
2022-12-03T04:29:16.951Z,-0.20
2022-12-03T04:32:02.494Z,-0.10
2022-12-03T04:34:47.711Z,-0.10
2022-12-03T04:37:15.804Z,-0.10
2022-12-03T04:39:43.909Z,-0.10
2022-12-03T04:42:13.398Z,-0.10
2022-12-03T04:44:41.450Z,-0.10
2022-12-03T04:47:10.763Z,-0.10
2022-12-03T04:49:39.869Z,-0.10
2022-12-03T04:52:08.044Z,-0.10
2022-12-03T04:54:36.166Z,-0.10
2022-12-03T04:57:04.329Z,-0.10
2022-12-03T04:59:34.020Z,-0.10
2022-12-03T05:02:02.098Z,-0.10
2022-12-03T05:04:30.237Z,-0.10
2022-12-03T05:06:58.320Z,-0.10
2022-12-03T05:09:26.350Z,-0.10
2022-12-03T05:11:54.452Z,-0.10
2022-12-03T05:14:22.863Z,-0.10
2022-12-03T05:16:52.399Z,-0.20
2022-12-03T05:19:20.521Z,-0.10
2022-12-03T05:21:47.629Z,-0.10
2022-12-03T05:24:15.667Z,-0.10
2022-12-03T05:26:43.854Z,-0.10
2022-12-03T05:29:11.951Z,-0.20
2022-12-03T05:31:40.104Z,-0.10
2022-12-03T05:34:09.558Z,-0.10
2022-12-03T05:36:37.624Z,-0.10
2022-12-03T05:39:05.928Z,-0.10
2022-12-03T05:41:47.844Z,-0.10
2022-12-03T05:44:20.271Z,-0.10
2022-12-03T05:46:49.169Z,-0.10
2022-12-03T05:49:18.614Z,-0.10
2022-12-03T05:51:46.819Z,-0.10
2022-12-03T05:54:14.838Z,-0.10
2022-12-03T05:56:42.911Z,-0.20
2022-12-03T05:59:11.234Z,-0.10
2022-12-03T06:01:39.422Z,-0.20
2022-12-03T06:04:07.573Z,-0.20
2022-12-03T06:06:37.087Z,-0.10
2022-12-03T06:09:05.584Z,-0.10
2022-12-03T06:11:36.996Z,-0.20
2022-12-03T06:14:05.065Z,-0.20
2022-12-03T06:16:33.249Z,-0.20
2022-12-03T06:19:01.448Z,-0.20
2022-12-03T06:21:29.784Z,-0.20
2022-12-03T06:24:00.214Z,-0.20
2022-12-03T06:26:28.263Z,-0.20
2022-12-03T06:28:56.305Z,-0.20
2022-12-03T06:31:24.792Z,-0.30
2022-12-03T06:33:52.922Z,-0.30
2022-12-03T06:36:23.237Z,-0.30
2022-12-03T06:38:51.439Z,-0.30
2022-12-03T06:41:21.104Z,-0.30
2022-12-03T06:43:49.140Z,-0.30
2022-12-03T06:46:17.355Z,-0.30
2022-12-03T06:48:45.479Z,-0.40
2022-12-03T06:51:13.608Z,-0.30
2022-12-03T06:53:41.677Z,-0.30
2022-12-03T06:56:09.991Z,-0.30
2022-12-03T06:58:39.449Z,-0.30
2022-12-03T07:01:07.586Z,-0.30
2022-12-03T07:03:35.687Z,-0.30
2022-12-03T07:06:03.786Z,-0.30
2022-12-03T07:08:31.841Z,-0.30
2022-12-03T07:10:59.993Z,-0.30
2022-12-03T07:13:28.060Z,-0.30
2022-12-03T07:15:57.622Z,-0.30
2022-12-03T07:18:25.812Z,-0.30
2022-12-03T07:20:54.029Z,-0.20
2022-12-03T07:23:22.115Z,-0.30
2022-12-03T07:25:50.254Z,-0.30
2022-12-03T07:28:18.333Z,-0.30
2022-12-03T07:30:46.526Z,-0.30
2022-12-03T07:33:16.024Z,-0.40
2022-12-03T07:35:44.248Z,-0.40
2022-12-03T07:38:12.654Z,-0.30
2022-12-03T07:40:40.815Z,-0.30
2022-12-03T07:43:08.869Z,-0.30
2022-12-03T07:45:36.959Z,-0.40
2022-12-03T07:48:05.141Z,-0.30
2022-12-03T07:50:34.640Z,-0.30
2022-12-03T07:53:02.718Z,-0.30
2022-12-03T07:55:30.832Z,-0.30
2022-12-03T07:57:58.911Z,-0.40
2022-12-03T08:00:27.248Z,-0.40
2022-12-03T08:02:55.365Z,-0.30
2022-12-03T08:05:23.458Z,-0.30
2022-12-03T08:07:52.997Z,-0.20
2022-12-03T08:10:21.146Z,-0.30
2022-12-03T08:12:49.516Z,-0.20
2022-12-03T08:15:18.955Z,-0.20
2022-12-03T08:17:48.336Z,-0.30
2022-12-03T08:20:18.443Z,-0.30
2022-12-03T08:22:47.698Z,-0.30
2022-12-03T08:25:20.712Z,-0.30
2022-12-03T08:27:48.764Z,-0.30
2022-12-03T08:30:17.425Z,-0.30
2022-12-03T08:32:45.894Z,-0.30
2022-12-03T08:35:14.801Z,-0.40
2022-12-03T08:37:42.854Z,-0.30
2022-12-03T08:40:23.946Z,-0.40
2022-12-03T08:42:51.983Z,-0.40
2022-12-03T08:45:32.415Z,-0.30
2022-12-03T08:48:01.096Z,-0.30
2022-12-03T08:50:30.533Z,-0.30
2022-12-03T08:53:00.557Z,-0.30
2022-12-03T08:55:36.520Z,-0.30
2022-12-03T08:58:07.418Z,-0.30
2022-12-03T09:00:35.597Z,-0.20
2022-12-03T09:03:03.650Z,-0.20
2022-12-03T09:05:33.510Z,-0.10
2022-12-03T09:08:01.812Z,-0.10
2022-12-03T09:10:30.124Z,-0.10
2022-12-03T09:12:59.545Z,-0.10
2022-12-03T09:15:28.416Z,0.00
2022-12-03T09:17:56.554Z,0.00
2022-12-03T09:20:24.623Z,0.00
2022-12-03T09:22:52.708Z,-0.10
2022-12-03T09:25:20.921Z,-0.10
2022-12-03T09:27:49.817Z,-0.10
2022-12-03T09:30:19.493Z,-0.10
2022-12-03T09:32:47.567Z,-0.10
2022-12-03T09:35:15.782Z,-0.10
2022-12-03T09:37:43.875Z,0.00
2022-12-03T09:40:13.314Z,0.00
2022-12-03T09:42:41.380Z,-0.10
2022-12-03T09:45:12.442Z,-0.10
2022-12-03T09:47:42.520Z,-0.10
2022-12-03T09:50:12.694Z,-0.10
2022-12-03T09:52:40.776Z,0.00
2022-12-03T09:55:13.130Z,0.00
2022-12-03T09:57:41.189Z,0.00
2022-12-03T10:00:16.724Z,0.00
2022-12-03T10:02:46.397Z,0.00
2022-12-03T10:05:14.758Z,0.00
2022-12-03T10:07:43.005Z,0.10
2022-12-03T10:10:16.572Z,0.20
2022-12-03T10:12:44.665Z,0.20
2022-12-03T10:15:13.978Z,0.30
2022-12-03T10:17:42.136Z,0.20
2022-12-03T10:20:14.658Z,0.10
2022-12-03T10:22:42.722Z,0.10
2022-12-03T10:25:12.568Z,0.00
2022-12-03T10:27:40.653Z,0.10
2022-12-03T10:30:17.203Z,0.20
2022-12-03T10:32:45.933Z,0.20
2022-12-03T10:35:16.403Z,0.20
2022-12-03T10:38:01.231Z,0.30
2022-12-03T10:40:29.941Z,0.30
2022-12-03T10:43:16.503Z,0.30
2022-12-03T10:45:44.742Z,0.30
2022-12-03T10:48:14.172Z,0.40
2022-12-03T10:50:51.051Z,0.30
2022-12-03T10:53:19.533Z,0.40
2022-12-03T10:55:47.868Z,0.40
2022-12-03T10:58:20.247Z,0.40
2022-12-03T11:00:48.459Z,0.40
2022-12-03T11:03:21.353Z,0.50
2022-12-03T11:05:51.117Z,0.50
2022-12-03T11:08:20.012Z,0.50
2022-12-03T11:10:56.376Z,0.60
2022-12-03T11:13:50.105Z,0.50
2022-12-03T11:17:12.145Z,0.50
2022-12-03T11:19:47.507Z,0.40
2022-12-03T11:22:38.926Z,0.40
2022-12-03T11:25:50.582Z,0.40
2022-12-03T11:28:47.411Z,0.40
2022-12-03T11:31:40.727Z,0.40
2022-12-03T11:34:47.884Z,0.40
2022-12-03T11:37:29.566Z,0.40
2022-12-03T11:40:16.452Z,0.50
2022-12-03T11:42:44.939Z,0.50
2022-12-03T11:45:17.733Z,0.60
2022-12-03T11:47:47.010Z,0.60
2022-12-03T11:50:21.737Z,0.70
2022-12-03T11:52:53.741Z,0.70
2022-12-03T11:55:28.260Z,0.70
2022-12-03T11:57:58.492Z,0.70
2022-12-03T12:00:26.914Z,0.70
2022-12-03T12:02:56.002Z,0.70
2022-12-03T12:05:29.206Z,0.80
2022-12-03T12:07:58.724Z,0.80
2022-12-03T12:10:53.936Z,0.80
2022-12-03T12:13:52.616Z,0.90
2022-12-03T12:16:51.333Z,0.80
2022-12-03T12:19:32.336Z,0.80
2022-12-03T12:22:17.892Z,0.80
2022-12-03T12:24:51.476Z,0.70
2022-12-03T12:27:21.375Z,0.80
2022-12-03T12:29:54.699Z,0.90
2022-12-03T12:32:25.368Z,0.90
2022-12-03T12:34:56.023Z,0.90
2022-12-03T12:37:27.482Z,0.90
2022-12-03T12:39:57.801Z,0.90
2022-12-03T12:42:34.170Z,0.80
2022-12-03T12:45:06.947Z,0.80
2022-12-03T12:47:35.740Z,0.70
2022-12-03T12:50:06.659Z,0.70
2022-12-03T12:52:34.696Z,0.70
2022-12-03T12:55:07.095Z,0.70
2022-12-03T12:57:35.125Z,0.60
2022-12-03T13:00:03.646Z,0.60
2022-12-03T13:02:42.065Z,0.70
2022-12-03T13:05:14.248Z,0.60
2022-12-03T13:07:43.719Z,0.70
2022-12-03T13:10:29.594Z,0.70
2022-12-03T13:12:57.790Z,0.70
2022-12-03T13:15:37.075Z,0.80
2022-12-03T13:18:12.031Z,0.70
2022-12-03T13:20:40.158Z,0.80
2022-12-03T13:23:15.627Z,0.80
2022-12-03T13:26:06.664Z,0.80
2022-12-03T13:28:33.888Z,0.80
2022-12-03T13:31:08.383Z,0.80
2022-12-03T13:33:36.500Z,0.80
2022-12-03T13:36:07.112Z,0.80
2022-12-03T13:38:35.181Z,0.80
2022-12-03T13:41:04.980Z,0.80
2022-12-03T13:43:32.608Z,0.70
2022-12-03T13:46:01.379Z,0.70
2022-12-03T13:48:31.213Z,0.70
2022-12-03T13:51:01.067Z,0.70
2022-12-03T13:53:30.333Z,0.70
2022-12-03T13:55:59.399Z,0.70
2022-12-03T13:58:28.817Z,0.70
2022-12-03T14:00:57.226Z,0.60
2022-12-03T14:03:25.325Z,0.70
2022-12-03T14:05:53.490Z,0.70
2022-12-03T14:08:22.058Z,0.70
2022-12-03T14:10:54.230Z,0.60
2022-12-03T14:13:25.145Z,0.70
2022-12-03T14:15:54.655Z,0.70
2022-12-03T14:18:22.698Z,0.70
2022-12-03T14:20:51.005Z,0.70
2022-12-03T14:23:19.189Z,0.70
2022-12-03T14:25:47.337Z,0.70
2022-12-03T14:28:15.455Z,0.70
2022-12-03T14:30:43.651Z,0.60
2022-12-03T14:33:13.270Z,0.70
2022-12-03T14:35:41.451Z,0.70
2022-12-03T14:38:09.508Z,0.70
2022-12-03T14:40:37.669Z,0.60
2022-12-03T14:43:05.756Z,0.70
2022-12-03T14:45:34.053Z,0.60
2022-12-03T14:48:02.256Z,0.60
2022-12-03T14:50:31.707Z,0.60
2022-12-03T14:52:59.811Z,0.70
2022-12-03T14:55:28.042Z,0.60
2022-12-03T14:57:56.211Z,0.60
2022-12-03T15:00:24.682Z,0.50
2022-12-03T15:02:52.936Z,0.60
2022-12-03T15:05:27.992Z,0.60
2022-12-03T15:07:58.426Z,0.60
2022-12-03T15:10:26.632Z,0.50
2022-12-03T15:12:54.784Z,0.60
2022-12-03T15:15:22.939Z,0.60
2022-12-03T15:17:51.003Z,0.60
2022-12-03T15:20:19.230Z,0.60
2022-12-03T15:22:47.497Z,0.50
2022-12-03T15:25:24.221Z,0.50
2022-12-03T15:27:52.529Z,0.50
2022-12-03T15:30:21.478Z,0.50
2022-12-03T15:32:49.551Z,0.60
2022-12-03T15:35:18.818Z,0.50
2022-12-03T15:37:46.869Z,0.50
2022-12-03T15:40:16.466Z,0.60
2022-12-03T15:42:44.544Z,0.50
2022-12-03T15:45:15.364Z,0.50
2022-12-03T15:47:43.733Z,0.60
2022-12-03T15:50:12.794Z,0.60
2022-12-03T15:52:40.923Z,0.60
2022-12-03T15:55:10.321Z,0.60
2022-12-03T15:57:39.789Z,0.60
2022-12-03T16:00:09.362Z,0.60
2022-12-03T16:02:37.531Z,0.50
2022-12-03T16:05:06.854Z,0.50
2022-12-03T16:07:34.933Z,0.50
2022-12-03T16:10:03.275Z,0.50
2022-12-03T16:12:31.373Z,0.50
2022-12-03T16:15:00.888Z,0.50
2022-12-03T16:17:28.981Z,0.50
2022-12-03T16:19:57.209Z,0.50
2022-12-03T16:22:25.387Z,0.40
2022-12-03T16:24:53.646Z,0.40
2022-12-03T16:27:25.466Z,0.50
2022-12-03T16:29:56.360Z,0.50
2022-12-03T16:32:26.155Z,0.50
2022-12-03T16:34:54.290Z,0.50
2022-12-03T16:37:22.375Z,0.50
2022-12-03T16:39:51.049Z,0.50
2022-12-03T16:42:19.095Z,0.50
2022-12-03T16:45:17.343Z,0.50
2022-12-03T16:47:46.863Z,0.50
2022-12-03T16:50:21.864Z,0.60
2022-12-03T16:52:55.916Z,0.60
2022-12-03T16:55:24.288Z,0.60
2022-12-03T16:57:52.683Z,0.60
2022-12-03T17:00:22.012Z,0.60
2022-12-03T17:02:51.538Z,0.60
2022-12-03T17:05:19.748Z,0.70
2022-12-03T17:07:47.842Z,0.70
2022-12-03T17:10:16.174Z,0.70
2022-12-03T17:13:08.181Z,0.60
2022-12-03T17:15:32.443Z,0.70
2022-12-03T17:18:03.742Z,0.70
2022-12-03T17:20:31.813Z,0.70
2022-12-03T17:22:59.994Z,0.70
2022-12-03T17:25:28.241Z,0.70
2022-12-03T17:27:56.333Z,0.70
2022-12-03T17:30:24.523Z,0.70
2022-12-03T17:32:52.584Z,0.60
2022-12-03T17:35:22.115Z,0.60
2022-12-03T17:37:50.178Z,0.60
2022-12-03T17:40:18.387Z,0.60
2022-12-03T17:42:46.472Z,0.70
2022-12-03T17:45:14.677Z,0.70
2022-12-03T17:47:42.771Z,0.70
2022-12-03T17:50:11.828Z,0.70
2022-12-03T17:52:41.238Z,0.70
2022-12-03T17:55:13.920Z,0.70
2022-12-03T17:57:44.283Z,0.70
2022-12-03T18:00:13.425Z,0.70
2022-12-03T18:02:41.505Z,0.70
2022-12-03T18:05:10.303Z,0.70
2022-12-03T18:07:38.384Z,0.70
2022-12-03T18:10:09.187Z,0.70
2022-12-03T18:12:37.346Z,0.70
2022-12-03T18:15:06.352Z,0.60
2022-12-03T18:17:34.403Z,0.60
2022-12-03T18:20:02.545Z,0.60
2022-12-03T18:22:30.609Z,0.70
2022-12-03T18:24:58.791Z,0.70
2022-12-03T18:27:28.204Z,0.60
2022-12-03T18:29:56.735Z,0.70
2022-12-03T18:32:29.232Z,0.70
2022-12-03T18:34:57.784Z,0.70
2022-12-03T18:37:26.673Z,0.70
2022-12-03T18:39:55.200Z,0.70
2022-12-03T18:42:23.841Z,0.70
2022-12-03T18:44:54.395Z,0.70
2022-12-03T18:47:23.517Z,0.70
2022-12-03T18:49:51.951Z,0.70
2022-12-03T18:52:21.581Z,0.70
2022-12-03T18:54:49.778Z,0.70
2022-12-03T18:57:17.982Z,0.70
2022-12-03T18:59:46.141Z,0.70
2022-12-03T19:02:32.473Z,0.70
2022-12-03T19:05:06.162Z,0.70
2022-12-03T19:07:34.308Z,0.80
2022-12-03T19:10:02.629Z,0.80
2022-12-03T19:12:31.232Z,0.80
2022-12-03T19:14:59.397Z,0.80
2022-12-03T19:17:28.844Z,0.80
2022-12-03T19:19:57.440Z,0.80
2022-12-03T19:22:25.661Z,0.90
2022-12-03T19:24:53.847Z,0.80
2022-12-03T19:27:21.904Z,0.90
2022-12-03T19:29:50.000Z,0.80
2022-12-03T19:32:18.173Z,0.90
2022-12-03T19:34:47.629Z,0.80
2022-12-03T19:37:15.716Z,0.80
2022-12-03T19:39:43.945Z,0.90
2022-12-03T19:42:12.077Z,0.90
2022-12-03T19:44:40.295Z,0.90
2022-12-03T19:47:08.417Z,0.90
2022-12-03T19:49:36.474Z,0.90
2022-12-03T19:52:06.189Z,0.90
2022-12-03T19:54:34.296Z,0.90
2022-12-03T19:57:02.628Z,0.90
2022-12-03T19:59:30.864Z,0.90
2022-12-03T20:01:59.167Z,1.00
2022-12-03T20:04:27.456Z,0.90
2022-12-03T20:06:55.761Z,0.90
2022-12-03T20:09:25.324Z,0.90
2022-12-03T20:11:53.956Z,0.90
2022-12-03T20:14:22.071Z,1.00
2022-12-03T20:16:50.803Z,1.00
2022-12-03T20:19:19.018Z,0.90
2022-12-03T20:21:47.169Z,0.90
2022-12-03T20:24:16.234Z,1.00
2022-12-03T20:26:45.760Z,1.00
2022-12-03T20:29:13.821Z,1.00
2022-12-03T20:31:42.061Z,1.00
2022-12-03T20:34:11.649Z,1.00
2022-12-03T20:36:40.092Z,1.00
2022-12-03T20:39:08.416Z,1.00
2022-12-03T20:41:36.968Z,1.00
2022-12-03T20:44:07.964Z,1.00
2022-12-03T20:46:36.227Z,0.90
2022-12-03T20:49:04.452Z,0.90
2022-12-03T20:51:32.948Z,1.00
2022-12-03T20:54:01.248Z,1.00
2022-12-03T20:56:31.277Z,0.90
2022-12-03T20:59:00.990Z,0.90
2022-12-03T21:01:30.523Z,1.00
2022-12-03T21:03:58.703Z,1.00
2022-12-03T21:06:27.909Z,1.00
2022-12-03T21:08:56.138Z,1.00
2022-12-03T21:11:25.252Z,1.00
2022-12-03T21:13:53.502Z,1.00
2022-12-03T21:16:45.522Z,1.00
2022-12-03T21:19:12.637Z,1.00
2022-12-03T21:21:40.807Z,1.00
2022-12-03T21:24:09.434Z,1.00
2022-12-03T21:26:37.622Z,1.00
2022-12-03T21:29:05.712Z,1.10
2022-12-03T21:31:35.468Z,1.00
2022-12-03T21:34:05.104Z,1.00
2022-12-03T21:36:34.621Z,1.00
2022-12-03T21:39:02.726Z,1.00
2022-12-03T21:41:30.977Z,1.00
2022-12-03T21:43:59.063Z,1.00
2022-12-03T21:47:12.968Z,1.00
2022-12-03T21:49:16.239Z,1.00
2022-12-03T21:51:46.181Z,1.00
2022-12-03T21:54:14.365Z,1.00
2022-12-03T21:56:42.538Z,1.00
2022-12-03T21:59:10.579Z,1.00
2022-12-03T22:01:41.692Z,1.00
2022-12-03T22:04:13.708Z,1.00
2022-12-03T22:06:41.893Z,1.00
2022-12-03T22:09:11.350Z,1.00
2022-12-03T22:11:39.391Z,1.00
2022-12-03T22:14:08.574Z,1.10
2022-12-03T22:16:36.794Z,1.10
2022-12-03T22:19:04.986Z,1.10
2022-12-03T22:21:33.068Z,1.10
2022-12-03T22:24:01.246Z,1.10
2022-12-03T22:26:30.986Z,1.10
2022-12-03T22:28:59.017Z,1.10
2022-12-03T22:31:27.131Z,1.10
2022-12-03T22:33:55.256Z,1.10
2022-12-03T22:36:23.349Z,1.10
2022-12-03T22:38:51.501Z,1.10
2022-12-03T22:41:19.650Z,1.10
2022-12-03T22:43:49.108Z,1.10
2022-12-03T22:46:17.418Z,1.10
2022-12-03T22:48:47.251Z,1.10
2022-12-03T22:51:16.152Z,1.10
2022-12-03T22:53:44.218Z,1.10
2022-12-03T22:56:12.398Z,1.10
2022-12-03T22:58:40.625Z,1.10
2022-12-03T23:01:10.205Z,1.10
2022-12-03T23:03:38.345Z,1.10
2022-12-03T23:06:11.520Z,1.10
2022-12-03T23:08:39.601Z,1.10
2022-12-03T23:11:07.870Z,1.10
2022-12-03T23:13:36.401Z,1.10
2022-12-03T23:16:04.637Z,1.10
2022-12-03T23:18:34.082Z,1.10
2022-12-03T23:21:02.217Z,1.20
2022-12-03T23:23:30.246Z,1.10
2022-12-03T23:25:58.926Z,1.10
2022-12-03T23:28:27.120Z,1.20
2022-12-03T23:30:55.360Z,1.20
2022-12-03T23:33:23.500Z,1.20
2022-12-03T23:35:53.030Z,1.20
2022-12-03T23:38:21.322Z,1.20
2022-12-03T23:40:49.510Z,1.20
2022-12-03T23:43:17.647Z,1.20
2022-12-03T23:45:45.780Z,1.20
2022-12-03T23:48:13.865Z,1.20
2022-12-03T23:50:42.404Z,1.20
2022-12-03T23:53:12.279Z,1.20
2022-12-03T23:55:40.930Z,1.20
2022-12-03T23:58:09.177Z,1.20
